sensor_id;sensor_type;location;lat;lon;timestamp;pressure;altitude;pressure_sealevel;temperature;humidity
46714;BME280;32445;51.376;10.874;2023-06-10T00:02:26;99419.16;;;19.96;45.56
46714;BME280;32445;51.376;10.874;2023-06-10T00:05:26;99409.78;;;19.92;45.27
46714;BME280;32445;51.376;10.874;2023-06-10T00:08:30;99410.19;;;19.86;45.18
46714;BME280;32445;51.376;10.874;2023-06-10T00:11:32;99406.06;;;19.82;45.57
46714;BME280;32445;51.376;10.874;2023-06-10T00:14:33;99410.75;;;19.77;45.23
46714;BME280;32445;51.376;10.874;2023-06-10T00:17:34;99410.22;;;19.71;45.21
46714;BME280;32445;51.376;10.874;2023-06-10T00:20:34;99403.47;;;19.67;45.39
46714;BME280;32445;51.376;10.874;2023-06-10T00:23:36;99404.50;;;19.65;44.74
46714;BME280;32445;51.376;10.874;2023-06-10T00:26:41;99405.53;;;19.62;45.09
46714;BME280;32445;51.376;10.874;2023-06-10T00:29:41;99408.59;;;19.56;45.67
46714;BME280;32445;51.376;10.874;2023-06-10T00:32:42;99413.19;;;19.52;45.73
46714;BME280;32445;51.376;10.874;2023-06-10T00:35:42;99403.91;;;19.47;45.78
46714;BME280;32445;51.376;10.874;2023-06-10T00:38:42;99409.47;;;19.42;45.60
46714;BME280;32445;51.376;10.874;2023-06-10T00:41:42;99403.66;;;19.37;45.80
46714;BME280;32445;51.376;10.874;2023-06-10T00:44:43;99403.00;;;19.33;45.62
46714;BME280;32445;51.376;10.874;2023-06-10T00:47:43;99396.34;;;19.28;46.04
46714;BME280;32445;51.376;10.874;2023-06-10T00:50:45;99395.69;;;19.24;46.09
46714;BME280;32445;51.376;10.874;2023-06-10T00:53:46;99400.31;;;19.21;46.29
46714;BME280;32445;51.376;10.874;2023-06-10T00:56:48;99404.09;;;19.16;46.32
46714;BME280;32445;51.376;10.874;2023-06-10T00:59:49;99410.47;;;19.12;46.52
46714;BME280;32445;51.376;10.874;2023-06-10T01:02:49;99416.78;;;19.10;46.17
46714;BME280;32445;51.376;10.874;2023-06-10T01:05:59;99405.72;;;19.05;46.92
46714;BME280;32445;51.376;10.874;2023-06-10T01:09:25;99406.94;;;18.99;47.19
46714;BME280;32445;51.376;10.874;2023-06-10T01:12:58;99406.38;;;18.94;47.06
46714;BME280;32445;51.376;10.874;2023-06-10T01:15:59;99408.25;;;18.92;46.71
46714;BME280;32445;51.376;10.874;2023-06-10T01:19:00;99407.59;;;18.88;46.57
46714;BME280;32445;51.376;10.874;2023-06-10T01:22:00;99410.47;;;18.83;46.37
46714;BME280;32445;51.376;10.874;2023-06-10T01:25:01;99410.69;;;18.80;46.59
46714;BME280;32445;51.376;10.874;2023-06-10T01:28:17;99419.69;;;18.76;46.93
46714;BME280;32445;51.376;10.874;2023-06-10T01:34:35;99422.81;;;18.68;46.87
46714;BME280;32445;51.376;10.874;2023-06-10T01:37:38;99420.44;;;18.64;47.16
46714;BME280;32445;51.376;10.874;2023-06-10T01:40:40;99419.69;;;18.62;47.33
46714;BME280;32445;51.376;10.874;2023-06-10T01:43:42;99415.47;;;18.59;46.30
46714;BME280;32445;51.376;10.874;2023-06-10T01:46:43;99418.28;;;18.56;46.45
46714;BME280;32445;51.376;10.874;2023-06-10T01:49:43;99417.69;;;18.51;46.85
46714;BME280;32445;51.376;10.874;2023-06-10T01:52:45;99424.09;;;18.47;46.85
46714;BME280;32445;51.376;10.874;2023-06-10T01:55:45;99418.19;;;18.43;47.20
46714;BME280;32445;51.376;10.874;2023-06-10T01:58:46;99407.00;;;18.40;47.03
46714;BME280;32445;51.376;10.874;2023-06-10T02:01:47;99413.38;;;18.36;47.25
46714;BME280;32445;51.376;10.874;2023-06-10T02:04:47;99416.22;;;18.32;47.44
46714;BME280;32445;51.376;10.874;2023-06-10T02:07:47;99417.22;;;18.30;47.29
46714;BME280;32445;51.376;10.874;2023-06-10T02:10:48;99409.53;;;18.27;47.39
46714;BME280;32445;51.376;10.874;2023-06-10T02:13:48;99407.94;;;18.24;47.19
46714;BME280;32445;51.376;10.874;2023-06-10T02:16:48;99415.13;;;18.21;47.21
46714;BME280;32445;51.376;10.874;2023-06-10T02:19:49;99418.78;;;18.18;47.33
46714;BME280;32445;51.376;10.874;2023-06-10T02:22:52;99420.75;;;18.14;47.42
46714;BME280;32445;51.376;10.874;2023-06-10T02:25:52;99414.00;;;18.10;47.39
46714;BME280;32445;51.376;10.874;2023-06-10T02:28:53;99420.25;;;18.08;47.69
46714;BME280;32445;51.376;10.874;2023-06-10T02:31:53;99422.25;;;18.04;47.64
46714;BME280;32445;51.376;10.874;2023-06-10T02:34:54;99425.97;;;18.00;47.51
46714;BME280;32445;51.376;10.874;2023-06-10T02:37:54;99424.47;;;17.96;47.49
46714;BME280;32445;51.376;10.874;2023-06-10T02:40:54;99426.34;;;17.94;48.16
46714;BME280;32445;51.376;10.874;2023-06-10T02:43:55;99431.75;;;17.91;47.65
46714;BME280;32445;51.376;10.874;2023-06-10T02:46:55;99431.88;;;17.88;47.48
46714;BME280;32445;51.376;10.874;2023-06-10T02:49:55;99427.75;;;17.84;47.43
46714;BME280;32445;51.376;10.874;2023-06-10T02:52:56;99427.94;;;17.80;47.54
46714;BME280;32445;51.376;10.874;2023-06-10T02:55:56;99422.84;;;17.77;47.66
46714;BME280;32445;51.376;10.874;2023-06-10T02:58:57;99419.56;;;17.74;48.06
46714;BME280;32445;51.376;10.874;2023-06-10T03:01:57;99419.72;;;17.71;47.99
46714;BME280;32445;51.376;10.874;2023-06-10T03:04:59;99421.59;;;17.69;47.91
46714;BME280;32445;51.376;10.874;2023-06-10T03:07:59;99425.25;;;17.66;47.81
46714;BME280;32445;51.376;10.874;2023-06-10T03:11:00;99426.25;;;17.63;47.89
46714;BME280;32445;51.376;10.874;2023-06-10T03:14:00;99429.94;;;17.61;47.74
46714;BME280;32445;51.376;10.874;2023-06-10T03:17:00;99428.41;;;17.57;47.47
46714;BME280;32445;51.376;10.874;2023-06-10T03:20:01;99430.25;;;17.55;47.85
46714;BME280;32445;51.376;10.874;2023-06-10T03:23:01;99430.44;;;17.52;47.67
46714;BME280;32445;51.376;10.874;2023-06-10T03:26:02;99429.69;;;17.50;48.02
46714;BME280;32445;51.376;10.874;2023-06-10T03:29:02;99427.22;;;17.46;48.08
46714;BME280;32445;51.376;10.874;2023-06-10T03:32:03;99432.63;;;17.43;47.65
46714;BME280;32445;51.376;10.874;2023-06-10T03:35:04;99431.88;;;17.41;48.20
46714;BME280;32445;51.376;10.874;2023-06-10T03:38:04;99446.84;;;17.39;48.28
46714;BME280;32445;51.376;10.874;2023-06-10T03:41:05;99440.00;;;17.37;47.72
46714;BME280;32445;51.376;10.874;2023-06-10T03:44:05;99453.22;;;17.35;48.27
46714;BME280;32445;51.376;10.874;2023-06-10T03:47:06;99447.19;;;17.33;48.14
46714;BME280;32445;51.376;10.874;2023-06-10T03:50:07;99453.34;;;17.32;48.42
46714;BME280;32445;51.376;10.874;2023-06-10T03:53:10;99444.75;;;17.30;48.40
46714;BME280;32445;51.376;10.874;2023-06-10T03:56:10;99449.16;;;17.29;48.74
46714;BME280;32445;51.376;10.874;2023-06-10T03:59:11;99455.31;;;17.28;48.40
46714;BME280;32445;51.376;10.874;2023-06-10T04:02:11;99457.16;;;17.26;48.64
46714;BME280;32445;51.376;10.874;2023-06-10T04:05:13;99458.13;;;17.25;48.75
46714;BME280;32445;51.376;10.874;2023-06-10T04:08:14;99466.91;;;17.24;48.50
46714;BME280;32445;51.376;10.874;2023-06-10T04:11:14;99454.72;;;17.23;48.92
46714;BME280;32445;51.376;10.874;2023-06-10T04:14:15;99461.75;;;17.23;48.74
46714;BME280;32445;51.376;10.874;2023-06-10T04:17:15;99457.44;;;17.22;48.78
46714;BME280;32445;51.376;10.874;2023-06-10T04:20:16;99456.59;;;17.21;48.75
46714;BME280;32445;51.376;10.874;2023-06-10T04:23:16;99450.50;;;17.21;49.13
46714;BME280;32445;51.376;10.874;2023-06-10T04:26:17;99447.03;;;17.20;49.32
46714;BME280;32445;51.376;10.874;2023-06-10T04:29:17;99462.75;;;17.20;48.89
46714;BME280;32445;51.376;10.874;2023-06-10T04:32:18;99462.75;;;17.20;49.07
46714;BME280;32445;51.376;10.874;2023-06-10T04:35:18;99467.16;;;17.20;49.39
46714;BME280;32445;51.376;10.874;2023-06-10T04:38:18;99471.50;;;17.21;49.30
46714;BME280;32445;51.376;10.874;2023-06-10T04:41:19;99455.75;;;17.21;49.25
46714;BME280;32445;51.376;10.874;2023-06-10T04:44:19;99466.25;;;17.21;49.25
46714;BME280;32445;51.376;10.874;2023-06-10T04:47:20;99464.47;;;17.21;49.62
46714;BME280;32445;51.376;10.874;2023-06-10T04:50:20;99463.53;;;17.22;49.55
46714;BME280;32445;51.376;10.874;2023-06-10T04:53:20;99463.53;;;17.22;49.87
46714;BME280;32445;51.376;10.874;2023-06-10T04:56:20;99455.59;;;17.24;49.61
46714;BME280;32445;51.376;10.874;2023-06-10T04:59:22;99464.28;;;17.24;50.13
46714;BME280;32445;51.376;10.874;2023-06-10T05:02:22;99458.94;;;17.26;50.02
46714;BME280;32445;51.376;10.874;2023-06-10T05:05:23;99458.88;;;17.27;49.84
46714;BME280;32445;51.376;10.874;2023-06-10T05:08:23;99453.63;;;17.27;50.25
46714;BME280;32445;51.376;10.874;2023-06-10T05:11:23;99466.56;;;17.30;50.28
46714;BME280;32445;51.376;10.874;2023-06-10T05:14:23;99467.44;;;17.31;50.33
46714;BME280;32445;51.376;10.874;2023-06-10T05:17:24;99461.19;;;17.34;50.52
46714;BME280;32445;51.376;10.874;2023-06-10T05:20:25;99463.72;;;17.35;50.68
46714;BME280;32445;51.376;10.874;2023-06-10T05:23:26;99475.78;;;17.38;50.62
46714;BME280;32445;51.376;10.874;2023-06-10T05:26:26;99488.78;;;17.41;51.01
46714;BME280;32445;51.376;10.874;2023-06-10T05:29:26;99483.34;;;17.44;50.68
46714;BME280;32445;51.376;10.874;2023-06-10T05:32:27;99489.34;;;17.46;50.65
46714;BME280;32445;51.376;10.874;2023-06-10T05:35:27;99489.16;;;17.49;51.12
46714;BME280;32445;51.376;10.874;2023-06-10T05:38:27;99482.00;;;17.53;51.33
46714;BME280;32445;51.376;10.874;2023-06-10T05:41:28;99487.91;;;17.56;51.42
46714;BME280;32445;51.376;10.874;2023-06-10T05:44:28;99491.31;;;17.58;51.01
46714;BME280;32445;51.376;10.874;2023-06-10T05:47:29;99492.84;;;17.62;51.06
46714;BME280;32445;51.376;10.874;2023-06-10T05:50:29;99490.94;;;17.64;51.10
46714;BME280;32445;51.376;10.874;2023-06-10T05:53:29;99501.28;;;17.68;51.17
46714;BME280;32445;51.376;10.874;2023-06-10T05:56:30;99500.34;;;17.69;51.00
46714;BME280;32445;51.376;10.874;2023-06-10T05:59:30;99499.44;;;17.70;51.38
46714;BME280;32445;51.376;10.874;2023-06-10T06:02:31;99501.78;;;17.74;51.44
46714;BME280;32445;51.376;10.874;2023-06-10T06:05:31;99505.94;;;17.78;51.87
46714;BME280;32445;51.376;10.874;2023-06-10T06:08:34;99502.22;;;17.83;52.06
46714;BME280;32445;51.376;10.874;2023-06-10T06:11:35;99503.81;;;17.85;52.42
46714;BME280;32445;51.376;10.874;2023-06-10T06:14:39;99507.19;;;17.87;52.82
46714;BME280;32445;51.376;10.874;2023-06-10T06:17:40;99507.88;;;17.91;53.55
46714;BME280;32445;51.376;10.874;2023-06-10T06:20:40;99505.13;;;17.94;53.12
46714;BME280;32445;51.376;10.874;2023-06-10T06:23:40;99501.34;;;17.98;52.99
46714;BME280;32445;51.376;10.874;2023-06-10T06:26:41;99503.75;;;18.03;53.49
46714;BME280;32445;51.376;10.874;2023-06-10T06:29:41;99500.94;;;18.06;53.59
46714;BME280;32445;51.376;10.874;2023-06-10T06:32:42;99504.06;;;18.12;53.57
46714;BME280;32445;51.376;10.874;2023-06-10T06:35:42;99502.94;;;18.16;53.56
46714;BME280;32445;51.376;10.874;2023-06-10T06:38:42;99500.91;;;18.22;53.29
46714;BME280;32445;51.376;10.874;2023-06-10T06:41:43;99499.69;;;18.27;53.70
46714;BME280;32445;51.376;10.874;2023-06-10T06:44:43;99501.22;;;18.31;53.18
46714;BME280;32445;51.376;10.874;2023-06-10T06:47:43;99501.78;;;18.37;53.46
46714;BME280;32445;51.376;10.874;2023-06-10T06:50:44;99500.66;;;18.41;54.09
46714;BME280;32445;51.376;10.874;2023-06-10T06:53:44;99507.25;;;18.48;54.41
46714;BME280;32445;51.376;10.874;2023-06-10T06:56:45;99513.00;;;18.55;54.24
46714;BME280;32445;51.376;10.874;2023-06-10T06:59:46;99518.75;;;18.61;53.78
46714;BME280;32445;51.376;10.874;2023-06-10T07:02:46;99514.03;;;18.66;53.67
46714;BME280;32445;51.376;10.874;2023-06-10T07:05:46;99517.25;;;18.72;53.81
46714;BME280;32445;51.376;10.874;2023-06-10T07:08:49;99519.41;;;18.79;53.94
46714;BME280;32445;51.376;10.874;2023-06-10T07:11:49;99525.16;;;18.86;54.18
46714;BME280;32445;51.376;10.874;2023-06-10T07:14:50;99521.16;;;18.95;54.42
46714;BME280;32445;51.376;10.874;2023-06-10T07:17:51;99519.03;;;19.01;54.16
46714;BME280;32445;51.376;10.874;2023-06-10T07:20:51;99513.28;;;19.09;54.05
46714;BME280;32445;51.376;10.874;2023-06-10T07:23:51;99523.25;;;19.18;54.41
46714;BME280;32445;51.376;10.874;2023-06-10T07:26:53;99525.28;;;19.28;54.73
46714;BME280;32445;51.376;10.874;2023-06-10T07:29:54;99526.50;;;19.36;54.71
46714;BME280;32445;51.376;10.874;2023-06-10T07:32:54;99527.72;;;19.45;54.27
46714;BME280;32445;51.376;10.874;2023-06-10T07:35:55;99520.94;;;19.56;54.32
46714;BME280;32445;51.376;10.874;2023-06-10T07:38:56;99523.00;;;19.65;54.20
46714;BME280;32445;51.376;10.874;2023-06-10T07:41:56;99518.91;;;19.74;53.77
46714;BME280;32445;51.376;10.874;2023-06-10T07:44:57;99516.59;;;19.83;53.91
46714;BME280;32445;51.376;10.874;2023-06-10T07:47:57;99518.59;;;19.93;53.94
46714;BME280;32445;51.376;10.874;2023-06-10T07:50:57;99512.75;;;20.02;54.14
46714;BME280;32445;51.376;10.874;2023-06-10T07:53:58;99520.03;;;20.11;53.99
46714;BME280;32445;51.376;10.874;2023-06-10T07:56:58;99523.84;;;20.20;53.90
46714;BME280;32445;51.376;10.874;2023-06-10T07:59:58;99515.38;;;20.29;53.73
46714;BME280;32445;51.376;10.874;2023-06-10T08:03:00;99517.38;;;20.38;53.57
46714;BME280;32445;51.376;10.874;2023-06-10T08:06:00;99516.66;;;20.49;53.32
46714;BME280;32445;51.376;10.874;2023-06-10T08:09:01;99517.94;;;20.56;53.43
46714;BME280;32445;51.376;10.874;2023-06-10T08:12:01;99515.63;;;20.65;53.50
46714;BME280;32445;51.376;10.874;2023-06-10T08:15:02;99515.84;;;20.74;53.43
46714;BME280;32445;51.376;10.874;2023-06-10T08:18:06;99516.06;;;20.84;53.55
46714;BME280;32445;51.376;10.874;2023-06-10T08:21:07;99513.66;;;20.94;53.80
46714;BME280;32445;51.376;10.874;2023-06-10T08:24:09;99515.66;;;21.03;53.69
46714;BME280;32445;51.376;10.874;2023-06-10T08:27:09;99508.56;;;21.17;53.81
46714;BME280;32445;51.376;10.874;2023-06-10T08:30:11;99505.28;;;21.26;53.53
46714;BME280;32445;51.376;10.874;2023-06-10T08:33:13;99507.16;;;21.37;53.35
46714;BME280;32445;51.376;10.874;2023-06-10T08:36:13;99509.78;;;21.50;52.62
46714;BME280;32445;51.376;10.874;2023-06-10T08:39:14;99508.06;;;21.62;52.28
46714;BME280;32445;51.376;10.874;2023-06-10T08:42:28;99502.84;;;21.73;52.84
46714;BME280;32445;51.376;10.874;2023-06-10T08:45:35;99502.69;;;21.87;53.02
46714;BME280;32445;51.376;10.874;2023-06-10T08:48:41;99506.22;;;21.99;52.56
46714;BME280;32445;51.376;10.874;2023-06-10T08:51:42;99504.38;;;22.12;52.22
46714;BME280;32445;51.376;10.874;2023-06-10T08:54:56;99505.97;;;22.26;52.41
46714;BME280;32445;51.376;10.874;2023-06-10T08:57:58;99506.78;;;22.40;51.91
46714;BME280;32445;51.376;10.874;2023-06-10T09:00:59;99500.56;;;22.52;51.55
46714;BME280;32445;51.376;10.874;2023-06-10T09:03:59;99515.50;;;22.64;51.21
46714;BME280;32445;51.376;10.874;2023-06-10T09:07:02;99510.94;;;22.78;50.82
46714;BME280;32445;51.376;10.874;2023-06-10T09:10:03;99509.75;;;22.93;50.37
46714;BME280;32445;51.376;10.874;2023-06-10T09:13:04;99504.22;;;23.08;49.80
46714;BME280;32445;51.376;10.874;2023-06-10T09:16:04;99505.97;;;23.20;49.66
46714;BME280;32445;51.376;10.874;2023-06-10T09:19:05;99511.59;;;23.38;49.30
46714;BME280;32445;51.376;10.874;2023-06-10T09:22:08;99506.50;;;23.58;49.08
46714;BME280;32445;51.376;10.874;2023-06-10T09:25:12;99504.63;;;23.81;48.93
46714;BME280;32445;51.376;10.874;2023-06-10T09:28:14;99501.94;;;24.04;48.24
46714;BME280;32445;51.376;10.874;2023-06-10T09:31:16;99509.81;;;24.26;48.38
46714;BME280;32445;51.376;10.874;2023-06-10T09:34:18;99496.69;;;24.46;47.49
46714;BME280;32445;51.376;10.874;2023-06-10T09:37:22;99492.63;;;24.63;47.24
46714;BME280;32445;51.376;10.874;2023-06-10T09:40:24;99499.88;;;24.82;46.77
46714;BME280;32445;51.376;10.874;2023-06-10T09:43:39;99502.03;;;24.98;47.11
46714;BME280;32445;51.376;10.874;2023-06-10T09:46:40;99494.13;;;25.17;46.49
46714;BME280;32445;51.376;10.874;2023-06-10T09:49:41;99496.19;;;25.35;45.95
46714;BME280;32445;51.376;10.874;2023-06-10T09:52:41;99487.56;;;25.52;45.56
46714;BME280;32445;51.376;10.874;2023-06-10T09:55:43;99483.25;;;25.71;44.75
46714;BME280;32445;51.376;10.874;2023-06-10T09:58:45;99488.63;;;25.90;45.33
46714;BME280;32445;51.376;10.874;2023-06-10T10:01:54;99488.78;;;26.08;44.46
46714;BME280;32445;51.376;10.874;2023-06-10T10:05:02;99480.94;;;26.27;43.44
46714;BME280;32445;51.376;10.874;2023-06-10T10:08:03;99480.88;;;26.46;43.59
46714;BME280;32445;51.376;10.874;2023-06-10T10:11:04;99481.81;;;26.65;44.32
46714;BME280;32445;51.376;10.874;2023-06-10T10:14:05;99478.69;;;26.89;43.86
46714;BME280;32445;51.376;10.874;2023-06-10T10:17:09;99479.72;;;27.16;42.65
46714;BME280;32445;51.376;10.874;2023-06-10T10:20:13;99471.34;;;27.38;42.12
46714;BME280;32445;51.376;10.874;2023-06-10T10:23:18;99472.00;;;27.68;41.38
46714;BME280;32445;51.376;10.874;2023-06-10T10:26:21;99470.50;;;28.02;40.12
46714;BME280;32445;51.376;10.874;2023-06-10T10:29:37;99470.75;;;28.35;39.52
46714;BME280;32445;51.376;10.874;2023-06-10T10:32:43;99468.00;;;28.71;38.20
46714;BME280;32445;51.376;10.874;2023-06-10T10:35:46;99461.16;;;29.03;37.93
46714;BME280;32445;51.376;10.874;2023-06-10T10:38:47;99462.00;;;29.38;37.60
46714;BME280;32445;51.376;10.874;2023-06-10T10:41:50;99461.56;;;29.75;36.59
46714;BME280;32445;51.376;10.874;2023-06-10T10:44:51;99463.75;;;30.05;36.52
46714;BME280;32445;51.376;10.874;2023-06-10T10:47:53;99463.59;;;30.39;36.47
46714;BME280;32445;51.376;10.874;2023-06-10T10:50:57;99469.56;;;30.74;35.46
46714;BME280;32445;51.376;10.874;2023-06-10T10:54:11;99459.41;;;31.09;35.26
46714;BME280;32445;51.376;10.874;2023-06-10T10:57:22;99467.13;;;31.44;34.47
46714;BME280;32445;51.376;10.874;2023-06-10T11:00:34;99472.81;;;31.80;34.13
46714;BME280;32445;51.376;10.874;2023-06-10T11:03:42;99466.03;;;32.07;33.90
46714;BME280;32445;51.376;10.874;2023-06-10T11:06:53;99460.28;;;32.34;31.62
46714;BME280;32445;51.376;10.874;2023-06-10T11:09:58;99462.00;;;32.50;31.86
46714;BME280;32445;51.376;10.874;2023-06-10T11:13:01;99456.09;;;32.69;31.45
46714;BME280;32445;51.376;10.874;2023-06-10T11:16:08;99460.06;;;32.88;31.47
46714;BME280;32445;51.376;10.874;2023-06-10T11:19:10;99463.09;;;33.15;31.68
46714;BME280;32445;51.376;10.874;2023-06-10T11:22:16;99462.44;;;33.43;30.93
46714;BME280;32445;51.376;10.874;2023-06-10T11:25:39;99462.06;;;33.68;31.21
46714;BME280;32445;51.376;10.874;2023-06-10T11:31:50;99457.84;;;34.23;29.79
46714;BME280;32445;51.376;10.874;2023-06-10T11:34:52;99457.81;;;34.45;29.52
46714;BME280;32445;51.376;10.874;2023-06-10T11:37:53;99445.72;;;34.69;28.93
46714;BME280;32445;51.376;10.874;2023-06-10T11:40:55;99453.75;;;34.91;28.63
46714;BME280;32445;51.376;10.874;2023-06-10T11:43:59;99455.09;;;35.15;29.17
46714;BME280;32445;51.376;10.874;2023-06-10T11:47:01;99458.72;;;35.36;27.40
46714;BME280;32445;51.376;10.874;2023-06-10T11:50:01;99443.63;;;35.48;27.10
46714;BME280;32445;51.376;10.874;2023-06-10T11:53:02;99454.00;;;35.64;27.71
46714;BME280;32445;51.376;10.874;2023-06-10T11:56:03;99447.44;;;35.87;27.11
46714;BME280;32445;51.376;10.874;2023-06-10T11:59:05;99453.44;;;35.96;27.27
46714;BME280;32445;51.376;10.874;2023-06-10T12:02:14;99441.19;;;36.20;27.33
46714;BME280;32445;51.376;10.874;2023-06-10T12:05:15;99438.69;;;36.45;26.45
46714;BME280;32445;51.376;10.874;2023-06-10T12:08:15;99440.50;;;36.65;26.36
46714;BME280;32445;51.376;10.874;2023-06-10T12:11:16;99433.81;;;36.87;26.24
46714;BME280;32445;51.376;10.874;2023-06-10T12:14:53;99438.53;;;37.05;25.90
46714;BME280;32445;51.376;10.874;2023-06-10T12:17:54;99449.44;;;37.37;25.20
46714;BME280;32445;51.376;10.874;2023-06-10T12:20:54;99440.50;;;37.62;24.66
46714;BME280;32445;51.376;10.874;2023-06-10T12:24:09;99435.66;;;37.78;24.78
46714;BME280;32445;51.376;10.874;2023-06-10T12:27:12;99443.00;;;37.96;24.44
46714;BME280;32445;51.376;10.874;2023-06-10T12:30:23;99432.44;;;38.13;24.04
46714;BME280;32445;51.376;10.874;2023-06-10T12:33:24;99441.25;;;38.33;23.98
46714;BME280;32445;51.376;10.874;2023-06-10T12:36:24;99420.16;;;38.54;23.76
46714;BME280;32445;51.376;10.874;2023-06-10T12:39:25;99413.72;;;38.73;22.38
46714;BME280;32445;51.376;10.874;2023-06-10T12:42:25;99422.72;;;38.86;23.20
46714;BME280;32445;51.376;10.874;2023-06-10T12:45:30;99420.38;;;39.08;22.93
46714;BME280;32445;51.376;10.874;2023-06-10T12:48:31;99414.31;;;39.24;22.18
46714;BME280;32445;51.376;10.874;2023-06-10T12:51:31;99417.31;;;39.35;22.04
46714;BME280;32445;51.376;10.874;2023-06-10T12:54:31;99420.31;;;39.45;21.97
46714;BME280;32445;51.376;10.874;2023-06-10T12:57:32;99412.66;;;39.54;21.83
46714;BME280;32445;51.376;10.874;2023-06-10T13:00:32;99403.59;;;39.60;21.83
46714;BME280;32445;51.376;10.874;2023-06-10T13:03:34;99409.66;;;39.74;21.81
46714;BME280;32445;51.376;10.874;2023-06-10T13:06:35;99414.84;;;39.87;22.00
46714;BME280;32445;51.376;10.874;2023-06-10T13:09:39;99399.75;;;40.03;21.31
46714;BME280;32445;51.376;10.874;2023-06-10T13:12:39;99401.66;;;40.14;21.53
46714;BME280;32445;51.376;10.874;2023-06-10T13:15:41;99407.91;;;40.27;21.06
46714;BME280;32445;51.376;10.874;2023-06-10T13:18:41;99403.53;;;40.38;19.78
46714;BME280;32445;51.376;10.874;2023-06-10T13:21:41;99390.53;;;40.40;20.78
46714;BME280;32445;51.376;10.874;2023-06-10T13:24:42;99398.78;;;40.45;20.42
46714;BME280;32445;51.376;10.874;2023-06-10T13:27:43;99384.03;;;40.53;20.50
46714;BME280;32445;51.376;10.874;2023-06-10T13:30:44;99383.19;;;40.64;20.33
46714;BME280;32445;51.376;10.874;2023-06-10T13:33:44;99394.13;;;40.69;19.75
46714;BME280;32445;51.376;10.874;2023-06-10T13:36:45;99375.44;;;40.73;19.68
46714;BME280;32445;51.376;10.874;2023-06-10T13:39:45;99379.69;;;40.80;19.69
46714;BME280;32445;51.376;10.874;2023-06-10T13:42:50;99375.78;;;40.76;19.82
46714;BME280;32445;51.376;10.874;2023-06-10T13:45:52;99378.38;;;40.83;19.98
46714;BME280;32445;51.376;10.874;2023-06-10T13:48:53;99374.00;;;40.94;19.59
46714;BME280;32445;51.376;10.874;2023-06-10T13:51:53;99374.66;;;41.01;19.53
46714;BME280;32445;51.376;10.874;2023-06-10T13:54:53;99359.16;;;41.02;18.70
46714;BME280;32445;51.376;10.874;2023-06-10T13:57:54;99373.00;;;41.00;19.29
46714;BME280;32445;51.376;10.874;2023-06-10T14:00:54;99367.13;;;40.91;19.24
46714;BME280;32445;51.376;10.874;2023-06-10T14:03:54;99366.00;;;40.75;19.36
46714;BME280;32445;51.376;10.874;2023-06-10T14:06:55;99367.28;;;40.73;18.65
46714;BME280;32445;51.376;10.874;2023-06-10T14:09:55;99353.09;;;40.71;19.09
46714;BME280;32445;51.376;10.874;2023-06-10T14:12:56;99349.91;;;40.74;20.22
46714;BME280;32445;51.376;10.874;2023-06-10T14:15:56;99347.88;;;40.81;19.48
46714;BME280;32445;51.376;10.874;2023-06-10T14:18:57;99353.28;;;40.93;20.41
46714;BME280;32445;51.376;10.874;2023-06-10T14:21:58;99347.53;;;41.06;20.04
46714;BME280;32445;51.376;10.874;2023-06-10T14:24:58;99342.84;;;41.19;19.21
46714;BME280;32445;51.376;10.874;2023-06-10T14:27:58;99349.22;;;41.24;19.51
46714;BME280;32445;51.376;10.874;2023-06-10T14:30:59;99346.31;;;41.31;19.27
46714;BME280;32445;51.376;10.874;2023-06-10T14:33:59;99344.28;;;41.38;19.33
46714;BME280;32445;51.376;10.874;2023-06-10T14:37:00;99348.16;;;41.42;20.08
46714;BME280;32445;51.376;10.874;2023-06-10T14:40:00;99342.47;;;41.44;19.43
46714;BME280;32445;51.376;10.874;2023-06-10T14:43:01;99348.75;;;41.44;19.30
46714;BME280;32445;51.376;10.874;2023-06-10T14:46:04;99336.97;;;41.39;18.68
46714;BME280;32445;51.376;10.874;2023-06-10T14:49:04;99343.16;;;41.22;19.24
46714;BME280;32445;51.376;10.874;2023-06-10T14:52:04;99342.69;;;41.25;19.73
46714;BME280;32445;51.376;10.874;2023-06-10T14:55:05;99339.81;;;41.32;18.99
46714;BME280;32445;51.376;10.874;2023-06-10T14:58:06;99348.78;;;41.32;20.28
46714;BME280;32445;51.376;10.874;2023-06-10T15:01:06;99357.59;;;41.35;19.37
46714;BME280;32445;51.376;10.874;2023-06-10T15:04:06;99363.25;;;41.33;20.53
46714;BME280;32445;51.376;10.874;2023-06-10T15:07:07;99363.16;;;41.28;20.07
46714;BME280;32445;51.376;10.874;2023-06-10T15:10:07;99375.91;;;41.10;20.52
46714;BME280;32445;51.376;10.874;2023-06-10T15:13:08;99376.47;;;40.95;18.88
46714;BME280;32445;51.376;10.874;2023-06-10T15:16:08;99395.59;;;40.60;17.72
46714;BME280;32445;51.376;10.874;2023-06-10T15:19:09;99385.22;;;40.33;17.31
46714;BME280;32445;51.376;10.874;2023-06-10T15:22:10;99403.31;;;40.04;17.92
46714;BME280;32445;51.376;10.874;2023-06-10T15:25:12;99409.41;;;39.75;17.33
46714;BME280;32445;51.376;10.874;2023-06-10T15:28:12;99435.41;;;39.41;17.77
46714;BME280;32445;51.376;10.874;2023-06-10T15:31:13;99432.25;;;39.14;18.19
46714;BME280;32445;51.376;10.874;2023-06-10T15:34:13;99424.84;;;38.84;18.55
46714;BME280;32445;51.376;10.874;2023-06-10T15:37:14;99425.75;;;38.59;18.51
46714;BME280;32445;51.376;10.874;2023-06-10T15:40:14;99437.91;;;38.31;18.91
46714;BME280;32445;51.376;10.874;2023-06-10T15:43:15;99447.09;;;38.05;20.46
46714;BME280;32445;51.376;10.874;2023-06-10T15:46:15;99437.53;;;37.70;20.66
46714;BME280;32445;51.376;10.874;2023-06-10T15:49:16;99435.44;;;37.40;21.16
46714;BME280;32445;51.376;10.874;2023-06-10T15:52:16;99433.06;;;37.12;22.09
46714;BME280;32445;51.376;10.874;2023-06-10T15:55:16;99441.09;;;36.87;22.87
46714;BME280;32445;51.376;10.874;2023-06-10T15:58:17;99440.72;;;36.63;22.38